createdAt,value
2018-11-28T00:01:37.231Z,15.50
2018-11-28T00:04:07.077Z,15.67
2018-11-28T00:06:36.868Z,15.63
2018-11-28T00:09:09.288Z,15.80
2018-11-28T00:11:39.805Z,15.53
2018-11-28T00:14:09.617Z,14.60
2018-11-28T00:16:39.439Z,15.23
2018-11-28T00:19:09.214Z,15.03
2018-11-28T00:21:39.020Z,15.70
2018-11-28T00:24:08.831Z,15.60
2018-11-28T00:26:38.617Z,14.97
2018-11-28T00:29:08.698Z,15.73
2018-11-28T00:31:38.477Z,16.80
2018-11-28T00:34:08.725Z,15.40
2018-11-28T00:36:38.497Z,15.60
2018-11-28T00:39:09.201Z,15.30
2018-11-28T00:41:38.968Z,15.23
2018-11-28T00:44:08.725Z,16.97
2018-11-28T00:46:38.817Z,16.20
2018-11-28T00:49:08.566Z,15.60
2018-11-28T00:51:38.339Z,15.77
2018-11-28T00:54:08.114Z,15.93
2018-11-28T00:56:37.854Z,15.53
2018-11-28T00:59:07.613Z,15.20
2018-11-28T01:01:37.363Z,16.33
2018-11-28T01:04:07.128Z,15.60
2018-11-28T01:06:36.901Z,16.40
2018-11-28T01:09:07.638Z,18.17
2018-11-28T01:11:37.372Z,15.57
2018-11-28T01:14:07.201Z,15.27
2018-11-28T01:16:36.961Z,16.57
2018-11-28T01:19:07.060Z,15.83
2018-11-28T01:21:36.806Z,16.83
2018-11-28T01:24:06.626Z,15.60
2018-11-28T01:26:36.721Z,17.40
2018-11-28T01:29:06.849Z,16.40
2018-11-28T01:31:36.632Z,16.43
2018-11-28T01:34:07.033Z,16.83
2018-11-28T01:36:36.785Z,17.30
2018-11-28T01:39:07.712Z,17.10
2018-11-28T01:41:37.501Z,17.20
2018-11-28T01:44:07.597Z,16.27
2018-11-28T01:46:37.385Z,16.63
2018-11-28T01:49:07.149Z,15.97
2018-11-28T01:51:36.938Z,15.87
2018-11-28T01:54:07.038Z,16.03
2018-11-28T01:56:36.801Z,15.50
2018-11-28T01:59:06.613Z,16.47
2018-11-28T02:01:36.387Z,16.67
2018-11-28T02:04:06.377Z,15.90
2018-11-28T02:06:36.128Z,15.30
2018-11-28T02:09:08.956Z,16.40
2018-11-28T02:11:38.677Z,15.90
2018-11-28T02:14:08.461Z,17.00
2018-11-28T02:16:38.590Z,15.27
2018-11-28T02:19:08.311Z,16.27
2018-11-28T02:21:38.121Z,15.47
2018-11-28T02:24:07.873Z,16.47
2018-11-28T02:26:37.650Z,15.67
2018-11-28T02:29:07.393Z,16.70
2018-11-28T02:31:37.263Z,15.60
2018-11-28T02:34:07.022Z,15.93
2018-11-28T02:36:36.942Z,15.97
2018-11-28T02:39:09.934Z,16.37
2018-11-28T02:41:39.692Z,17.30
2018-11-28T02:44:09.488Z,16.40
2018-11-28T02:46:39.240Z,16.73
2018-11-28T02:49:09.084Z,16.60
2018-11-28T02:51:38.807Z,15.80
2018-11-28T02:54:08.583Z,16.67
2018-11-28T02:56:38.328Z,15.67
2018-11-28T02:59:08.100Z,17.00
2018-11-28T03:01:37.879Z,16.93
2018-11-28T03:04:07.654Z,16.00
2018-11-28T03:06:37.402Z,17.03
2018-11-28T03:09:09.142Z,15.57
2018-11-28T03:11:38.947Z,17.63
2018-11-28T03:14:08.691Z,16.57
2018-11-28T03:16:38.485Z,17.37
2018-11-28T03:19:08.249Z,17.57
2018-11-28T03:21:38.021Z,17.50
2018-11-28T03:24:07.804Z,17.47
2018-11-28T03:26:37.557Z,17.53
2018-11-28T03:29:07.365Z,18.67
2018-11-28T03:31:37.147Z,17.73
2018-11-28T03:34:07.127Z,17.73
2018-11-28T03:36:36.945Z,17.53
2018-11-28T03:39:10.109Z,17.43
2018-11-28T03:41:39.888Z,18.70
2018-11-28T03:44:09.640Z,17.70
2018-11-28T03:46:39.378Z,18.13
2018-11-28T03:49:09.168Z,18.10
2018-11-28T03:51:38.933Z,20.10
2018-11-28T03:54:08.768Z,17.80
2018-11-28T03:56:38.546Z,18.30
2018-11-28T03:59:08.713Z,18.20
2018-11-28T04:01:38.542Z,18.93
2018-11-28T04:04:08.313Z,19.03
2018-11-28T04:06:38.125Z,18.60
2018-11-28T04:09:09.350Z,18.63
2018-11-28T04:11:39.166Z,19.97
2018-11-28T04:14:08.963Z,18.50
2018-11-28T04:16:38.761Z,17.17
2018-11-28T04:19:08.591Z,18.40
2018-11-28T04:21:38.368Z,18.43
2018-11-28T04:24:08.161Z,19.27
2018-11-28T04:26:37.916Z,19.57
2018-11-28T04:29:07.718Z,18.67
2018-11-28T04:31:37.585Z,18.67
2018-11-28T04:34:07.398Z,18.70
2018-11-28T04:36:37.163Z,18.40
2018-11-28T04:39:08.941Z,18.80
2018-11-28T04:41:38.691Z,19.17
2018-11-28T04:44:08.475Z,17.97
2018-11-28T04:46:38.238Z,18.43
2018-11-28T04:49:08.004Z,18.80
2018-11-28T04:51:37.759Z,19.53
2018-11-28T04:54:07.552Z,18.77
2018-11-28T04:56:37.339Z,20.10
2018-11-28T04:59:07.100Z,17.67
2018-11-28T05:01:36.877Z,18.10
2018-11-28T05:04:06.924Z,19.73
2018-11-28T05:07:41.521Z,18.93
2018-11-28T05:10:14.749Z,17.80
2018-11-28T05:12:44.834Z,18.67
2018-11-28T05:15:16.904Z,19.60
2018-11-28T05:17:47.937Z,17.70
2018-11-28T05:20:20.424Z,19.23
2018-11-28T05:22:50.228Z,19.03
2018-11-28T05:25:22.504Z,19.53
2018-11-28T05:27:53.535Z,18.97
2018-11-28T05:30:25.044Z,19.20
2018-11-28T05:32:54.806Z,19.90
2018-11-28T05:35:26.767Z,19.47
2018-11-28T05:37:57.362Z,18.53
2018-11-28T05:40:28.560Z,18.03
2018-11-28T05:42:58.558Z,20.23
2018-11-28T05:45:28.377Z,19.70
2018-11-28T05:47:58.208Z,19.17
2018-11-28T05:50:28.022Z,18.40
2018-11-28T05:52:58.019Z,19.03
2018-11-28T05:55:27.780Z,19.40
2018-11-28T05:57:57.537Z,19.40
2018-11-28T06:00:32.837Z,20.07
2018-11-28T06:03:02.613Z,18.07
2018-11-28T06:05:33.407Z,20.83
2018-11-28T06:08:02.197Z,19.67
2018-11-28T06:10:31.974Z,18.67
2018-11-28T06:13:01.714Z,19.57
2018-11-28T06:15:31.582Z,19.40
2018-11-28T06:18:01.380Z,18.57
2018-11-28T06:20:31.149Z,19.37
2018-11-28T06:23:00.927Z,19.33
2018-11-28T06:25:30.674Z,19.30
2018-11-28T06:28:00.464Z,20.23
2018-11-28T06:30:30.218Z,18.80
2018-11-28T06:33:00.017Z,19.80
2018-11-28T06:35:29.802Z,20.83
2018-11-28T06:37:59.581Z,20.33
2018-11-28T06:40:29.360Z,20.07
2018-11-28T06:42:59.225Z,20.70
2018-11-28T06:45:29.002Z,22.17
2018-11-28T06:47:58.792Z,32.60
2018-11-28T06:50:28.541Z,20.90
2018-11-28T06:52:58.339Z,19.00
2018-11-28T06:55:28.080Z,19.97
2018-11-28T06:57:57.879Z,19.87
2018-11-28T07:00:27.629Z,20.27
2018-11-28T07:02:57.411Z,20.33
2018-11-28T07:05:27.171Z,18.80
2018-11-28T07:07:56.941Z,20.97
2018-11-28T07:10:26.693Z,20.27
2018-11-28T07:12:56.452Z,20.60
2018-11-28T07:15:26.973Z,19.97
2018-11-28T07:18:06.935Z,19.83
2018-11-28T07:20:36.673Z,20.73
2018-11-28T07:23:06.918Z,21.67
2018-11-28T07:25:36.723Z,20.63
2018-11-28T07:28:06.516Z,20.87
2018-11-28T07:30:37.842Z,20.23
2018-11-28T07:33:06.437Z,20.33
2018-11-28T07:35:36.217Z,21.10
2018-11-28T07:38:06.619Z,20.03
2018-11-28T07:40:38.957Z,21.43
2018-11-28T07:43:10.237Z,21.33
2018-11-28T07:45:46.142Z,20.87
2018-11-28T07:48:15.870Z,20.33
2018-11-28T07:50:45.928Z,19.80
2018-11-28T07:53:15.716Z,21.23
2018-11-28T07:55:45.467Z,19.80
2018-11-28T07:58:15.241Z,20.97
2018-11-28T08:00:45.002Z,20.17
2018-11-28T08:03:14.810Z,18.83
2018-11-28T08:05:44.616Z,20.10
2018-11-28T08:08:14.613Z,20.10
2018-11-28T08:10:44.367Z,19.17
2018-11-28T08:13:14.169Z,19.93
2018-11-28T08:15:43.917Z,21.10
2018-11-28T08:18:13.701Z,20.73
2018-11-28T08:20:43.501Z,20.50
2018-11-28T08:23:13.262Z,18.62
2018-11-28T08:25:43.064Z,20.17
2018-11-28T08:28:12.835Z,20.90
2018-11-28T08:30:42.617Z,20.60
2018-11-28T08:33:12.405Z,19.70
2018-11-28T08:35:42.178Z,19.77
2018-11-28T08:38:11.961Z,19.80
2018-11-28T08:40:41.745Z,18.70
2018-11-28T08:43:11.519Z,20.17
2018-11-28T08:45:41.537Z,19.43
2018-11-28T08:48:15.519Z,19.10
2018-11-28T08:50:45.333Z,19.17
2018-11-28T08:53:15.086Z,20.20
2018-11-28T08:55:44.876Z,18.60
2018-11-28T08:58:14.618Z,19.73
2018-11-28T09:00:44.406Z,19.13
2018-11-28T09:03:14.170Z,19.53
2018-11-28T09:05:43.957Z,19.30
2018-11-28T09:08:13.729Z,18.55
2018-11-28T09:10:43.506Z,18.80
2018-11-28T09:13:13.269Z,19.37
2018-11-28T09:15:43.049Z,19.83
2018-11-28T09:18:12.837Z,19.03
2018-11-28T09:20:42.611Z,19.80
2018-11-28T09:23:12.364Z,19.83
2018-11-28T09:25:42.113Z,19.67
2018-11-28T09:28:11.925Z,19.60
2018-11-28T09:30:41.691Z,18.97
2018-11-28T09:33:11.449Z,19.13
2018-11-28T09:35:41.218Z,18.40
2018-11-28T09:38:10.970Z,19.37
2018-11-28T09:40:40.746Z,18.47
2018-11-28T09:43:10.597Z,19.33
2018-11-28T09:45:40.361Z,17.97
2018-11-28T09:48:10.159Z,17.80
2018-11-28T09:50:39.997Z,17.70
2018-11-28T09:53:09.775Z,18.07
2018-11-28T09:55:39.598Z,19.77
2018-11-28T09:58:09.374Z,17.93
2018-11-28T10:00:39.470Z,17.57
2018-11-28T10:03:09.246Z,17.30
2018-11-28T10:05:39.036Z,18.80
2018-11-28T10:08:08.834Z,18.57
2018-11-28T10:10:38.593Z,18.83
2018-11-28T10:13:08.371Z,16.90
2018-11-28T10:15:38.173Z,17.93
2018-11-28T10:18:08.025Z,18.57
2018-11-28T10:20:38.170Z,18.80
2018-11-28T10:23:07.946Z,18.67
2018-11-28T10:34:31.637Z,18.83
2018-11-28T10:37:01.437Z,17.63
2018-11-28T10:39:31.218Z,18.23
2018-11-28T10:42:00.995Z,18.50
2018-11-28T10:44:30.990Z,17.53
2018-11-28T10:47:00.731Z,17.87
2018-11-28T10:49:30.504Z,17.37
2018-11-28T10:52:00.419Z,17.13
2018-11-28T10:54:30.072Z,17.87
2018-11-28T10:56:59.833Z,16.97
2018-11-28T10:59:29.612Z,17.43
2018-11-28T11:02:04.614Z,17.50
2018-11-28T11:04:39.673Z,17.60
2018-11-28T11:07:14.562Z,16.93
2018-11-28T11:09:49.532Z,17.07
2018-11-28T11:12:24.634Z,16.70
2018-11-28T11:14:54.429Z,16.70
2018-11-28T11:17:24.187Z,16.57
2018-11-28T11:19:53.949Z,17.30
2018-11-28T11:22:23.714Z,17.43
2018-11-28T11:24:53.825Z,16.67
2018-11-28T11:27:23.589Z,16.07
2018-11-28T11:29:53.638Z,16.67
2018-11-28T11:32:23.488Z,17.27
2018-11-28T11:34:53.542Z,16.10
2018-11-28T11:37:23.325Z,16.03
2018-11-28T11:39:53.095Z,15.37
2018-11-28T11:42:22.886Z,16.17
2018-11-28T11:44:52.624Z,16.87
2018-11-28T11:47:22.390Z,15.97
2018-11-28T11:49:52.119Z,17.20
2018-11-28T11:52:21.895Z,15.60
2018-11-28T11:54:51.652Z,15.80
2018-11-28T11:57:21.410Z,15.33
2018-11-28T11:59:51.168Z,15.60
2018-11-28T12:02:20.945Z,16.43
2018-11-28T12:04:51.093Z,14.70
2018-11-28T12:07:20.863Z,16.57
2018-11-28T12:09:50.657Z,15.73
2018-11-28T12:12:20.401Z,16.17
2018-11-28T12:14:50.204Z,16.30
2018-11-28T12:17:19.953Z,14.57
2018-11-28T12:19:49.723Z,15.70
2018-11-28T12:22:19.470Z,15.53
2018-11-28T12:24:49.273Z,15.37
2018-11-28T12:27:19.015Z,15.13
2018-11-28T12:29:48.785Z,14.23
2018-11-28T12:32:18.530Z,14.60
2018-11-28T12:34:50.525Z,15.67
2018-11-28T12:37:18.214Z,14.87
2018-11-28T12:39:48.089Z,14.93
2018-11-28T12:42:17.861Z,15.57
2018-11-28T12:44:47.633Z,15.43
2018-11-28T12:47:17.405Z,15.40
2018-11-28T12:49:47.185Z,14.80
2018-11-28T12:52:16.966Z,15.40
2018-11-28T12:54:46.728Z,15.07
2018-11-28T12:57:16.497Z,14.27
2018-11-28T12:59:46.561Z,14.53
2018-11-28T13:02:16.304Z,14.23
2018-11-28T13:04:46.070Z,14.43
2018-11-28T13:07:15.877Z,15.07
2018-11-28T13:09:45.670Z,14.33
2018-11-28T13:12:15.458Z,14.77
2018-11-28T13:14:45.217Z,14.67
2018-11-28T13:17:15.394Z,14.20
2018-11-28T13:19:45.231Z,13.53
2018-11-28T13:22:14.984Z,12.97
2018-11-28T13:24:44.759Z,14.37
2018-11-28T13:27:14.536Z,14.47
2018-11-28T13:29:44.317Z,13.27
2018-11-28T13:32:14.086Z,13.10
2018-11-28T13:34:44.041Z,14.13
2018-11-28T13:37:14.259Z,12.97
2018-11-28T13:39:44.014Z,13.80
2018-11-28T13:42:13.804Z,12.43
2018-11-28T13:44:43.573Z,13.30
2018-11-28T13:47:13.357Z,12.53
2018-11-28T13:49:43.128Z,12.83
2018-11-28T13:52:13.773Z,12.80
2018-11-28T13:55:37.323Z,12.00
2018-11-28T13:57:13.645Z,13.20
2018-11-28T13:59:43.409Z,12.17
2018-11-28T14:02:13.181Z,12.40
2018-11-28T14:04:43.333Z,11.90
2018-11-28T14:07:13.100Z,12.83
2018-11-28T14:09:43.268Z,12.70
2018-11-28T14:12:13.029Z,12.33
2018-11-28T14:14:43.055Z,12.50
2018-11-28T14:17:12.841Z,12.10
2018-11-28T14:19:42.658Z,12.50
2018-11-28T14:22:12.499Z,12.20
2018-11-28T14:24:42.302Z,12.97
2018-11-28T14:27:12.098Z,12.30
2018-11-28T14:29:41.886Z,11.97
2018-11-28T14:32:11.686Z,11.97
2018-11-28T14:34:41.455Z,11.77
2018-11-28T14:37:11.240Z,12.07
2018-11-28T14:39:41.068Z,11.40
2018-11-28T14:42:10.861Z,12.47
2018-11-28T14:44:40.645Z,12.33
2018-11-28T14:47:10.424Z,12.10
2018-11-28T14:49:40.288Z,12.30
2018-11-28T14:52:10.118Z,12.40
2018-11-28T14:54:39.837Z,13.43
2018-11-28T14:57:09.625Z,13.20
2018-11-28T14:59:40.646Z,13.17
2018-11-28T15:02:09.195Z,11.67
2018-11-28T15:04:39.588Z,12.43
2018-11-28T15:07:10.298Z,14.37
2018-11-28T15:09:45.256Z,13.03
2018-11-28T15:12:15.617Z,13.03
2018-11-28T15:14:45.418Z,14.10
2018-11-28T15:17:15.225Z,13.73
2018-11-28T15:19:45.045Z,13.70
2018-11-28T15:22:14.869Z,12.93
2018-11-28T15:24:44.682Z,13.03
2018-11-28T15:27:14.514Z,12.87
2018-11-28T15:29:44.286Z,13.97
2018-11-28T15:32:14.086Z,14.67
2018-11-28T15:34:43.857Z,14.87
2018-11-28T15:37:13.618Z,14.07
2018-11-28T15:39:43.409Z,13.93
2018-11-28T15:42:13.177Z,14.00
2018-11-28T15:44:43.069Z,15.57
2018-11-28T15:47:12.845Z,15.13
2018-11-28T15:49:42.646Z,13.67
2018-11-28T15:52:12.417Z,14.43
2018-11-28T15:54:42.192Z,15.57
2018-11-28T15:57:11.952Z,13.23
2018-11-28T15:59:41.753Z,14.83
2018-11-28T16:02:11.518Z,14.03
2018-11-28T16:04:41.290Z,14.40
2018-11-28T16:07:11.393Z,14.20
2018-11-28T16:09:46.260Z,14.63
2018-11-28T16:12:16.033Z,15.40
2018-11-28T16:14:45.795Z,14.13
2018-11-28T16:17:15.606Z,13.40
2018-11-28T16:19:45.378Z,15.20
2018-11-28T16:22:15.173Z,15.53
2018-11-28T16:24:45.110Z,14.73
2018-11-28T16:27:14.937Z,16.00
2018-11-28T16:29:44.742Z,16.67
2018-11-28T16:32:14.529Z,19.10
2018-11-28T16:34:44.618Z,18.63
2018-11-28T16:37:14.084Z,18.90
2018-11-28T16:39:43.855Z,18.20
2018-11-28T16:42:13.873Z,19.80
2018-11-28T16:44:43.678Z,19.30
2018-11-28T16:47:13.518Z,20.90
2018-11-28T16:49:43.338Z,20.27
2018-11-28T16:52:13.302Z,19.67
2018-11-28T16:54:43.125Z,18.53
2018-11-28T16:57:12.949Z,21.73
2018-11-28T16:59:42.734Z,21.43
2018-11-28T17:02:12.533Z,20.63
2018-11-28T17:04:42.277Z,21.77
2018-11-28T17:07:12.077Z,20.63
2018-11-28T17:09:41.817Z,20.60
2018-11-28T17:12:11.618Z,20.17
2018-11-28T17:14:41.373Z,21.57
2018-11-28T17:17:11.159Z,20.03
2018-11-28T17:19:40.906Z,19.63
2018-11-28T17:22:10.706Z,20.70
2018-11-28T17:24:40.517Z,22.33
2018-11-28T17:27:10.358Z,21.17
2018-11-28T17:29:40.288Z,23.50
2018-11-28T17:32:10.069Z,20.60
2018-11-28T17:34:39.812Z,21.40
2018-11-28T17:37:09.610Z,20.10
2018-11-28T17:39:39.715Z,19.83
2018-11-28T17:42:09.541Z,22.33
2018-11-28T17:44:39.353Z,20.23
2018-11-28T17:47:09.240Z,20.57
2018-11-28T17:49:39.015Z,21.20
2018-11-28T17:52:08.805Z,19.97
2018-11-28T17:54:38.581Z,18.20
2018-11-28T17:57:08.374Z,18.77
2018-11-28T17:59:38.154Z,17.97
2018-11-28T18:02:08.030Z,18.23
2018-11-28T18:04:37.849Z,17.23
2018-11-28T18:07:07.661Z,17.00
2018-11-28T18:09:37.438Z,17.70
2018-11-28T18:12:07.213Z,17.17
2018-11-28T18:14:36.952Z,16.23
2018-11-28T18:17:07.067Z,15.77
2018-11-28T18:19:36.833Z,15.10
2018-11-28T18:22:07.081Z,13.67
2018-11-28T18:24:36.854Z,14.70
2018-11-28T18:27:07.033Z,13.67
2018-11-28T18:29:36.826Z,14.30
2018-11-28T18:32:06.842Z,15.50
2018-11-28T18:34:36.621Z,14.20
2018-11-28T18:37:07.230Z,14.20
2018-11-28T18:39:37.053Z,15.10
2018-11-28T18:42:07.123Z,14.50
2018-11-28T18:44:36.897Z,14.10
2018-11-28T18:47:06.822Z,13.93
2018-11-28T18:49:36.611Z,14.13
2018-11-28T18:52:07.086Z,14.63
2018-11-28T18:54:36.861Z,14.20
2018-11-28T18:57:06.674Z,13.93
2018-11-28T18:59:36.458Z,13.33
2018-11-28T19:02:06.788Z,14.17
2018-11-28T19:04:36.582Z,14.10
2018-11-28T19:07:06.990Z,17.03
2018-11-28T19:09:42.049Z,12.30
2018-11-28T19:12:11.821Z,12.33
2018-11-28T19:14:41.612Z,11.17
2018-11-28T19:17:11.425Z,12.43
2018-11-28T19:19:41.179Z,12.17
2018-11-28T19:22:10.957Z,12.10
2018-11-28T19:24:40.749Z,13.77
2018-11-28T19:27:10.522Z,13.17
2018-11-28T19:29:40.314Z,13.30
2018-11-28T19:32:10.098Z,13.83
2018-11-28T19:34:39.923Z,14.03
2018-11-28T19:37:09.820Z,14.27
2018-11-28T19:39:39.591Z,15.40
2018-11-28T19:42:09.374Z,13.40
2018-11-28T19:44:39.187Z,13.50
2018-11-28T19:47:08.981Z,13.80
2018-11-28T19:49:38.813Z,14.27
2018-11-28T19:52:08.614Z,13.17
2018-11-28T19:54:38.764Z,14.40
2018-11-28T19:57:08.563Z,14.20
2018-11-28T19:59:38.331Z,13.03
2018-11-28T20:02:08.108Z,17.83
2018-11-28T20:04:38.170Z,12.50
2018-11-28T20:07:07.913Z,12.30
2018-11-28T20:09:37.720Z,12.37
2018-11-28T20:12:07.597Z,11.50
2018-11-28T20:14:37.759Z,9.57
2018-11-28T20:17:07.574Z,10.07
2018-11-28T20:19:37.347Z,11.73
2018-11-28T20:22:07.335Z,10.00
2018-11-28T20:24:37.134Z,10.10
2018-11-28T20:27:07.233Z,10.40
2018-11-28T20:29:37.025Z,10.17
2018-11-28T20:32:06.801Z,10.00
2018-11-28T20:34:36.975Z,10.30
2018-11-28T20:37:06.697Z,11.23
2018-11-28T20:39:36.512Z,10.83
2018-11-28T20:42:06.325Z,10.30
2018-11-28T20:44:36.442Z,10.60
2018-11-28T20:47:06.214Z,10.87
2018-11-28T20:49:36.001Z,10.40
2018-11-28T20:52:06.660Z,10.13
2018-11-28T20:54:36.402Z,9.07
2018-11-28T20:57:06.210Z,9.83
2018-11-28T20:59:38.455Z,8.30
2018-11-28T21:02:06.100Z,8.43
2018-11-28T21:04:35.881Z,8.90
2018-11-28T21:07:05.841Z,8.97
2018-11-28T21:09:40.002Z,8.33
2018-11-28T21:12:09.760Z,8.33
2018-11-28T21:14:39.565Z,8.70
2018-11-28T21:17:09.377Z,7.93
2018-11-28T21:19:39.173Z,8.83
2018-11-28T21:22:09.215Z,8.03
2018-11-28T21:24:38.998Z,8.27
2018-11-28T21:27:08.919Z,8.47
2018-11-28T21:29:38.741Z,8.13
2018-11-28T21:32:08.537Z,8.00
2018-11-28T21:34:38.374Z,7.77
2018-11-28T21:37:08.151Z,7.63
2018-11-28T21:39:37.945Z,8.27
2018-11-28T21:42:07.727Z,8.20
2018-11-28T21:44:37.493Z,8.33
2018-11-28T21:47:07.284Z,8.63
2018-11-28T21:49:37.068Z,8.20
2018-11-28T21:52:06.874Z,9.27
2018-11-28T21:54:36.690Z,8.37
2018-11-28T21:57:06.525Z,8.83
2018-11-28T21:59:36.335Z,8.80
2018-11-28T22:02:06.621Z,8.57
2018-11-28T22:04:36.369Z,8.57
2018-11-28T22:07:06.612Z,8.97
2018-11-28T22:09:36.405Z,9.17
2018-11-28T22:12:06.524Z,10.03
2018-11-28T22:14:36.665Z,8.80
2018-11-28T22:17:06.414Z,8.87
2018-11-28T22:19:36.181Z,9.57
2018-11-28T22:22:05.975Z,10.07
2018-11-28T22:24:35.729Z,10.27
2018-11-28T22:27:05.884Z,10.60
2018-11-28T22:29:35.696Z,9.50
2018-11-28T22:32:05.561Z,9.90
2018-11-28T22:34:35.352Z,9.77
2018-11-28T22:37:05.158Z,10.13
2018-11-28T22:39:34.929Z,9.63
2018-11-28T22:42:04.701Z,9.87
2018-11-28T22:44:34.826Z,9.90
2018-11-28T22:47:04.720Z,9.17
2018-11-28T22:49:34.511Z,9.70
2018-11-28T22:52:04.217Z,10.13
2018-11-28T22:54:33.977Z,9.20
2018-11-28T22:57:04.100Z,9.43
2018-11-28T22:59:33.845Z,9.07
2018-11-28T23:03:10.038Z,9.40
2018-11-28T23:05:48.053Z,9.70
2018-11-28T23:08:19.598Z,8.97
2018-11-28T23:10:50.358Z,10.00
2018-11-28T23:13:23.501Z,9.27
2018-11-28T23:15:53.315Z,9.50
2018-11-28T23:18:23.357Z,8.80
2018-11-28T23:20:53.110Z,8.43
2018-11-28T23:23:22.897Z,9.07
2018-11-28T23:25:52.704Z,8.30
2018-11-28T23:28:22.447Z,9.00
2018-11-28T23:30:52.240Z,8.57
2018-11-28T23:33:21.984Z,7.87
2018-11-28T23:35:51.741Z,9.03
2018-11-28T23:38:21.541Z,8.03
2018-11-28T23:40:51.712Z,8.20
2018-11-28T23:43:21.497Z,8.10
2018-11-28T23:45:51.237Z,8.80
2018-11-28T23:48:21.006Z,8.03
2018-11-28T23:50:50.769Z,8.80
2018-11-28T23:53:20.538Z,9.17
2018-11-28T23:55:50.288Z,7.97
2018-11-28T23:58:20.795Z,8.33
